createdAt,value
2022-09-28T00:01:17.844Z,13.75
2022-09-28T00:03:46.882Z,12.30
2022-09-28T00:06:17.012Z,11.80
2022-09-28T00:08:44.588Z,10.98
2022-09-28T00:11:15.649Z,9.60
2022-09-28T00:13:44.241Z,9.15
2022-09-28T00:16:18.469Z,9.30
2022-09-28T00:18:48.316Z,9.35
2022-09-28T00:21:24.428Z,10.68
2022-09-28T00:24:12.836Z,9.63
2022-09-28T00:26:46.371Z,6.93
2022-09-28T00:29:35.461Z,9.05
2022-09-28T00:32:06.468Z,7.40
2022-09-28T00:34:36.627Z,12.85
2022-09-28T00:37:06.068Z,12.45
2022-09-28T00:39:34.577Z,9.55
2022-09-28T00:42:03.819Z,14.20
2022-09-28T00:44:40.050Z,11.27
2022-09-28T00:47:27.689Z,7.32
2022-09-28T00:49:54.863Z,9.38
2022-09-28T00:52:32.751Z,10.05
2022-09-28T00:55:02.347Z,9.68
2022-09-28T00:57:31.229Z,13.75
2022-09-28T01:00:00.707Z,6.63
2022-09-28T01:02:28.355Z,10.68
2022-09-28T01:04:59.282Z,12.27
2022-09-28T01:07:26.885Z,7.38
2022-09-28T01:09:55.149Z,10.40
2022-09-28T01:12:22.557Z,10.07
2022-09-28T01:14:51.164Z,10.63
2022-09-28T01:17:26.619Z,14.30
2022-09-28T01:20:00.265Z,9.25
2022-09-28T01:22:36.677Z,12.70
2022-09-28T01:25:57.996Z,10.18
2022-09-28T01:28:29.355Z,10.13
2022-09-28T01:31:17.827Z,11.18
2022-09-28T01:33:50.964Z,10.68
2022-09-28T01:36:31.576Z,9.20
2022-09-28T01:39:06.006Z,12.23
2022-09-28T01:41:40.663Z,13.00
2022-09-28T01:44:14.393Z,11.68
2022-09-28T01:46:45.776Z,13.25
2022-09-28T01:49:31.655Z,10.82
2022-09-28T01:52:14.886Z,10.13
2022-09-28T01:55:00.575Z,14.98
2022-09-28T01:57:33.738Z,11.75
2022-09-28T02:00:10.834Z,13.98
2022-09-28T02:02:57.523Z,10.60
2022-09-28T02:05:39.306Z,11.18
2022-09-28T02:08:14.153Z,16.05
2022-09-28T02:10:44.104Z,13.98
2022-09-28T02:13:20.767Z,10.77
2022-09-28T02:16:06.185Z,11.93
2022-09-28T02:18:34.266Z,10.23
2022-09-28T02:21:13.500Z,11.50
2022-09-28T02:23:51.816Z,12.00
2022-09-28T02:26:23.406Z,15.77
2022-09-28T02:28:50.936Z,11.55
2022-09-28T02:31:18.347Z,7.00
2022-09-28T02:33:47.911Z,11.98
2022-09-28T02:36:15.239Z,16.92
2022-09-28T02:38:43.124Z,13.60
2022-09-28T02:42:04.855Z,13.82
2022-09-28T02:44:47.045Z,11.32
2022-09-28T02:47:49.754Z,11.38
2022-09-28T02:50:59.835Z,11.77
2022-09-28T02:53:42.423Z,11.05
2022-09-28T02:56:47.364Z,11.57
2022-09-28T02:59:17.830Z,9.02
2022-09-28T03:02:14.386Z,10.63
2022-09-28T03:05:06.639Z,8.98
2022-09-28T03:08:02.587Z,15.13
2022-09-28T03:10:43.664Z,12.23
2022-09-28T03:13:14.018Z,21.20
2022-09-28T03:15:46.433Z,15.10
2022-09-28T03:18:16.590Z,11.18
2022-09-28T03:20:44.094Z,12.80
2022-09-28T03:23:26.911Z,12.10
2022-09-28T03:25:57.391Z,10.50
2022-09-28T03:28:24.807Z,17.45
2022-09-28T03:30:53.026Z,9.68
2022-09-28T03:33:21.274Z,14.43
2022-09-28T03:35:50.955Z,13.93
2022-09-28T03:38:19.544Z,13.85
2022-09-28T03:40:55.443Z,14.32
2022-09-28T03:43:24.455Z,9.98
2022-09-28T03:45:55.147Z,10.48
2022-09-28T03:48:31.381Z,16.15
2022-09-28T03:51:02.727Z,14.05
2022-09-28T03:53:30.961Z,11.77
2022-09-28T03:56:14.111Z,12.27
2022-09-28T03:58:42.710Z,10.05
2022-09-28T04:01:17.651Z,12.48
2022-09-28T04:03:47.458Z,11.85
2022-09-28T04:06:15.732Z,14.52
2022-09-28T04:08:43.693Z,11.15
2022-09-28T04:11:11.946Z,13.13
2022-09-28T04:13:39.746Z,11.82
2022-09-28T04:16:11.664Z,9.80
2022-09-28T04:18:40.306Z,11.25
2022-09-28T04:21:26.118Z,11.43
2022-09-28T04:24:03.178Z,9.57
2022-09-28T04:26:30.701Z,10.32
2022-09-28T04:29:19.531Z,10.88
2022-09-28T04:31:56.569Z,12.57
2022-09-28T04:34:36.491Z,13.77
2022-09-28T04:37:05.711Z,11.75
2022-09-28T04:39:33.009Z,14.25
2022-09-28T04:42:01.373Z,14.07
2022-09-28T04:44:29.198Z,13.43
2022-09-28T04:47:05.292Z,13.90
2022-09-28T04:49:35.618Z,15.70
2022-09-28T04:52:06.989Z,14.32
2022-09-28T04:54:35.528Z,13.07
2022-09-28T04:57:04.037Z,11.68
2022-09-28T04:59:31.301Z,11.32
2022-09-28T05:02:00.430Z,8.40
2022-09-28T05:04:55.518Z,14.43
2022-09-28T05:07:27.127Z,11.63
2022-09-28T05:09:56.208Z,11.82
2022-09-28T05:12:24.537Z,16.73
2022-09-28T05:14:51.895Z,16.30
2022-09-28T05:17:19.354Z,11.82
2022-09-28T05:20:00.948Z,16.05
2022-09-28T05:22:29.052Z,10.77
2022-09-28T05:24:59.334Z,15.52
2022-09-28T05:27:29.946Z,11.50
2022-09-28T05:30:07.485Z,18.20
2022-09-28T05:32:53.888Z,16.50
2022-09-28T05:35:32.571Z,11.05
2022-09-28T05:38:05.078Z,13.43
2022-09-28T05:40:33.649Z,13.30
2022-09-28T05:43:08.374Z,11.00
2022-09-28T05:45:35.838Z,14.30
2022-09-28T05:48:04.745Z,13.88
2022-09-28T05:50:32.369Z,13.05
2022-09-28T05:53:05.983Z,15.15
2022-09-28T05:55:33.753Z,11.75
2022-09-28T05:58:03.375Z,13.35
2022-09-28T06:00:32.325Z,13.65
2022-09-28T06:03:11.854Z,11.80
2022-09-28T06:05:40.233Z,12.63
2022-09-28T06:08:12.338Z,14.07
2022-09-28T06:10:44.264Z,15.57
2022-09-28T06:13:12.425Z,15.00
2022-09-28T06:15:42.859Z,17.00
2022-09-28T06:18:16.873Z,10.75
2022-09-28T06:21:03.071Z,10.23
2022-09-28T06:23:45.616Z,12.63
2022-09-28T06:26:15.775Z,12.68
2022-09-28T06:28:44.733Z,12.98
2022-09-28T06:31:12.248Z,17.20
2022-09-28T06:33:49.151Z,11.52
2022-09-28T06:36:18.189Z,15.13
2022-09-28T06:38:48.690Z,12.70
2022-09-28T06:41:19.771Z,14.35
2022-09-28T06:43:52.505Z,10.73
2022-09-28T06:46:52.621Z,10.02
2022-09-28T06:49:23.081Z,20.00
2022-09-28T06:54:58.774Z,16.30
2022-09-28T06:57:39.856Z,12.80
2022-09-28T07:00:08.017Z,13.75
2022-09-28T07:02:35.762Z,13.50
2022-09-28T07:05:08.323Z,12.13
2022-09-28T07:07:38.694Z,19.42
2022-09-28T07:10:15.717Z,13.73
2022-09-28T07:13:05.884Z,17.52
2022-09-28T07:15:41.364Z,12.95
2022-09-28T07:18:12.852Z,11.82
2022-09-28T07:20:53.101Z,15.32
2022-09-28T07:23:21.874Z,9.48
2022-09-28T07:26:24.592Z,11.20
2022-09-28T07:29:05.569Z,13.00
2022-09-28T07:31:53.387Z,17.65
2022-09-28T07:34:44.205Z,13.32
2022-09-28T07:37:36.425Z,13.75
2022-09-28T07:40:24.685Z,13.93
2022-09-28T07:42:53.220Z,12.82
2022-09-28T07:45:24.037Z,10.20
2022-09-28T07:48:00.734Z,12.70
2022-09-28T07:50:28.036Z,21.02
2022-09-28T07:53:16.435Z,14.05
2022-09-28T07:55:56.131Z,11.50
2022-09-28T07:58:58.652Z,12.88
2022-09-28T08:01:44.713Z,10.57
2022-09-28T08:04:14.607Z,13.63
2022-09-28T08:06:44.335Z,11.93
2022-09-28T08:09:13.698Z,15.90
2022-09-28T08:11:59.797Z,9.88
2022-09-28T08:14:56.906Z,16.90
2022-09-28T08:17:24.147Z,7.97
2022-09-28T08:20:14.161Z,11.07
2022-09-28T08:22:42.231Z,12.98
2022-09-28T08:25:09.830Z,11.27
2022-09-28T08:27:37.285Z,11.77
2022-09-28T08:30:06.095Z,12.98
2022-09-28T08:32:39.161Z,9.13
2022-09-28T08:38:10.277Z,7.25
2022-09-28T08:41:35.201Z,7.57
2022-09-28T08:48:22.568Z,6.07
2022-09-28T08:51:16.352Z,9.18
2022-09-28T08:54:01.200Z,8.30
2022-09-28T08:57:07.681Z,8.65
2022-09-28T08:59:52.421Z,6.53
2022-09-28T09:02:33.682Z,7.13
2022-09-28T09:05:36.199Z,6.72
2022-09-28T09:08:27.922Z,9.27
2022-09-28T09:11:09.718Z,8.68
2022-09-28T09:13:48.698Z,8.32
2022-09-28T09:16:36.593Z,27.25
2022-09-28T09:19:45.696Z,7.70
2022-09-28T09:22:34.353Z,8.68
2022-09-28T09:25:08.518Z,6.85
2022-09-28T09:28:08.144Z,12.95
2022-09-28T09:30:57.592Z,11.63
2022-09-28T09:34:02.332Z,10.48
2022-09-28T09:37:06.265Z,11.30
2022-09-28T09:40:05.348Z,6.85
2022-09-28T09:43:27.977Z,8.13
2022-09-28T09:46:38.130Z,8.13
2022-09-28T09:49:31.271Z,9.23
2022-09-28T09:52:06.987Z,9.77
2022-09-28T09:54:43.262Z,9.02
2022-09-28T09:57:20.497Z,10.27
2022-09-28T10:00:05.753Z,13.70
2022-09-28T10:02:50.084Z,7.35
2022-09-28T10:05:36.939Z,9.35
2022-09-28T10:08:14.863Z,8.05
2022-09-28T10:10:51.857Z,10.10
2022-09-28T10:13:21.930Z,8.30
2022-09-28T10:15:51.641Z,8.27
2022-09-28T10:18:39.328Z,5.47
2022-09-28T10:21:37.857Z,5.50
2022-09-28T10:24:40.562Z,8.30
2022-09-28T10:27:25.159Z,8.60
2022-09-28T10:30:03.873Z,8.77
2022-09-28T10:32:39.712Z,7.63
2022-09-28T10:35:18.735Z,10.25
2022-09-28T10:38:17.402Z,6.72
2022-09-28T10:41:00.181Z,10.00
2022-09-28T10:43:51.296Z,6.30
2022-09-28T10:46:23.934Z,9.15
2022-09-28T10:49:23.902Z,11.80
2022-09-28T10:51:57.122Z,8.55
2022-09-28T10:54:30.688Z,6.05
2022-09-28T10:57:00.465Z,6.57
2022-09-28T10:59:40.970Z,9.27
2022-09-28T11:02:36.003Z,6.13
2022-09-28T11:05:28.169Z,7.68
2022-09-28T11:08:00.993Z,7.45
2022-09-28T11:10:35.545Z,9.98
2022-09-28T11:13:11.194Z,8.30
2022-09-28T11:15:45.134Z,9.90
2022-09-28T11:18:32.687Z,13.85
2022-09-28T11:21:27.629Z,12.50
2022-09-28T11:24:07.708Z,14.30
2022-09-28T11:26:46.652Z,13.07
2022-09-28T11:29:24.950Z,15.60
2022-09-28T11:32:15.503Z,10.52
2022-09-28T11:35:08.072Z,11.23
2022-09-28T11:37:47.338Z,10.45
2022-09-28T11:40:29.804Z,10.43
2022-09-28T11:43:15.801Z,10.82
2022-09-28T11:46:12.600Z,9.75
2022-09-28T11:48:47.966Z,13.18
2022-09-28T11:53:55.402Z,8.93
2022-09-28T11:56:45.448Z,13.23
2022-09-28T11:59:34.752Z,14.00
2022-09-28T12:02:11.188Z,13.00
2022-09-28T12:04:59.512Z,10.57
2022-09-28T12:07:27.684Z,9.60
2022-09-28T12:10:10.303Z,11.85
2022-09-28T12:12:51.288Z,12.45
2022-09-28T12:15:25.821Z,14.35
2022-09-28T12:18:04.028Z,10.13
2022-09-28T12:20:34.970Z,10.45
2022-09-28T12:23:24.513Z,11.40
2022-09-28T12:26:05.035Z,10.07
2022-09-28T12:28:50.753Z,7.70
2022-09-28T12:31:38.596Z,10.98
2022-09-28T12:34:06.344Z,13.27
2022-09-28T12:36:41.784Z,12.23
2022-09-28T12:39:40.989Z,11.77
2022-09-28T12:42:24.495Z,12.85
2022-09-28T12:44:59.666Z,12.73
2022-09-28T12:47:59.365Z,11.15
2022-09-28T12:50:57.241Z,14.25
2022-09-28T12:53:54.170Z,12.75
2022-09-28T12:56:41.506Z,14.38
2022-09-28T12:59:22.356Z,9.32
2022-09-28T13:02:41.784Z,12.07
2022-09-28T13:05:37.894Z,13.15
2022-09-28T13:08:08.034Z,10.98
2022-09-28T13:10:43.091Z,10.50
2022-09-28T13:13:36.936Z,9.80
2022-09-28T13:16:10.209Z,16.35
2022-09-28T13:19:04.486Z,11.63
2022-09-28T13:22:11.908Z,14.82
2022-09-28T13:24:44.506Z,12.95
2022-09-28T13:27:23.140Z,8.30
2022-09-28T13:29:52.427Z,10.02
2022-09-28T13:32:20.220Z,10.15
2022-09-28T13:34:50.658Z,11.38
2022-09-28T13:37:25.780Z,10.75
2022-09-28T13:39:56.793Z,13.95
2022-09-28T13:42:36.295Z,13.77
2022-09-28T13:45:21.668Z,11.45
2022-09-28T13:47:57.132Z,12.50
2022-09-28T13:50:34.634Z,12.52
2022-09-28T13:53:39.632Z,8.68
2022-09-28T13:56:26.002Z,7.95
2022-09-28T13:59:15.011Z,8.98
2022-09-28T14:01:52.147Z,12.38
2022-09-28T14:04:24.635Z,9.82
2022-09-28T14:07:15.428Z,11.13
2022-09-28T14:09:45.793Z,10.02
2022-09-28T14:12:31.831Z,11.15
2022-09-28T14:15:00.284Z,14.15
2022-09-28T14:17:32.476Z,13.18
2022-09-28T14:20:07.537Z,10.98
2022-09-28T14:22:40.641Z,9.48
2022-09-28T14:25:08.106Z,9.60
2022-09-28T14:27:47.813Z,8.68
2022-09-28T14:30:15.094Z,9.20
2022-09-28T14:32:52.592Z,7.85
2022-09-28T14:35:27.877Z,10.52
2022-09-28T14:38:19.281Z,14.07
2022-09-28T14:41:15.672Z,7.22
2022-09-28T14:43:45.788Z,10.38
2022-09-28T14:46:16.102Z,12.18
2022-09-28T14:48:52.998Z,8.25
2022-09-28T14:51:35.869Z,8.90
2022-09-28T14:54:36.961Z,7.53
2022-09-28T14:57:08.286Z,11.30
2022-09-28T14:59:43.798Z,14.50
2022-09-28T15:02:11.199Z,8.75
2022-09-28T15:04:45.057Z,11.35
2022-09-28T15:07:24.371Z,8.50
2022-09-28T15:09:54.007Z,11.32
2022-09-28T15:12:31.133Z,12.55
2022-09-28T15:15:04.394Z,9.40
2022-09-28T15:17:40.049Z,16.92
2022-09-28T15:20:30.841Z,10.82
2022-09-28T15:25:52.942Z,16.55
2022-09-28T15:28:22.618Z,9.55
2022-09-28T15:30:50.493Z,10.77
2022-09-28T15:33:48.567Z,11.98
2022-09-28T15:36:41.101Z,10.13
2022-09-28T15:39:32.003Z,10.55
2022-09-28T15:42:01.078Z,12.68
2022-09-28T15:45:03.014Z,13.45
2022-09-28T15:47:32.182Z,13.00
2022-09-28T15:50:04.830Z,11.43
2022-09-28T15:52:47.301Z,14.43
2022-09-28T15:55:28.836Z,18.50
2022-09-28T15:58:15.961Z,19.60
2022-09-28T16:00:45.366Z,15.90
2022-09-28T16:03:12.551Z,15.65
2022-09-28T16:05:47.083Z,18.05
2022-09-28T16:08:22.427Z,15.95
2022-09-28T16:13:25.963Z,18.70
2022-09-28T16:16:00.643Z,17.25
2022-09-28T16:18:30.677Z,23.20
2022-09-28T16:21:29.428Z,18.80
2022-09-28T16:23:57.749Z,20.40
2022-09-28T16:26:37.808Z,19.20
2022-09-28T16:29:41.523Z,22.27
2022-09-28T16:32:27.339Z,29.95
2022-09-28T16:37:34.412Z,33.65
2022-09-28T16:40:02.014Z,19.38
2022-09-28T16:42:29.398Z,23.23
2022-09-28T16:44:56.777Z,23.50
2022-09-28T16:47:24.336Z,27.10
2022-09-28T16:49:51.918Z,20.08
2022-09-28T16:52:40.252Z,18.38
2022-09-28T16:58:05.750Z,25.20
2022-09-28T17:00:33.199Z,36.13
2022-09-28T17:03:00.807Z,23.55
2022-09-28T17:05:28.899Z,23.88
2022-09-28T17:08:02.161Z,24.00
2022-09-28T17:10:50.011Z,18.77
2022-09-28T17:13:37.698Z,21.75
2022-09-28T17:16:10.680Z,27.50
2022-09-28T17:18:40.240Z,24.60
2022-09-28T17:21:12.532Z,27.95
2022-09-28T17:23:39.905Z,25.23
2022-09-28T17:26:07.470Z,25.27
2022-09-28T17:28:36.560Z,20.45
2022-09-28T17:31:05.169Z,27.45
2022-09-28T17:33:32.881Z,19.63
2022-09-28T17:36:04.971Z,30.65
2022-09-28T17:38:32.705Z,39.20
2022-09-28T17:41:00.037Z,22.52
2022-09-28T17:43:27.600Z,29.88
2022-09-28T17:45:54.991Z,23.05
2022-09-28T17:48:24.516Z,29.52
2022-09-28T17:50:52.105Z,27.13
2022-09-28T17:53:19.877Z,30.23
2022-09-28T17:55:47.535Z,22.92
2022-09-28T17:58:20.781Z,29.13
2022-09-28T18:00:50.618Z,28.75
2022-09-28T18:03:20.607Z,23.23
2022-09-28T18:05:52.368Z,24.88
2022-09-28T18:08:21.718Z,36.72
2022-09-28T18:10:50.642Z,36.45
2022-09-28T18:13:18.126Z,33.95
2022-09-28T18:15:45.669Z,28.95
2022-09-28T18:18:13.310Z,27.02
2022-09-28T18:20:41.705Z,29.13
2022-09-28T18:23:09.041Z,29.67
2022-09-28T18:25:40.380Z,30.05
2022-09-28T18:28:08.132Z,33.00
2022-09-28T18:30:39.981Z,25.00
2022-09-28T18:33:08.904Z,22.75
2022-09-28T18:35:36.901Z,26.80
2022-09-28T18:38:05.879Z,37.30
2022-09-28T18:40:35.642Z,35.85
2022-09-28T18:43:04.463Z,26.27
2022-09-28T18:45:31.971Z,21.45
2022-09-28T18:48:00.025Z,30.70
2022-09-28T18:50:27.485Z,23.13
2022-09-28T18:52:54.870Z,21.60
2022-09-28T18:55:22.349Z,17.67
2022-09-28T18:57:50.016Z,22.23
2022-09-28T19:00:17.371Z,22.48
2022-09-28T19:02:44.942Z,21.75
2022-09-28T19:05:12.496Z,20.00
2022-09-28T19:07:39.840Z,20.70
2022-09-28T19:10:07.954Z,20.40
2022-09-28T19:12:35.322Z,16.77
2022-09-28T19:15:02.732Z,23.38
2022-09-28T19:17:30.136Z,17.85
2022-09-28T19:19:57.526Z,25.77
2022-09-28T19:22:25.005Z,22.95
2022-09-28T19:24:53.891Z,20.40
2022-09-28T19:27:21.296Z,20.67
2022-09-28T19:29:48.868Z,14.68
2022-09-28T19:32:16.261Z,17.50
2022-09-28T19:34:43.843Z,17.05
2022-09-28T19:37:11.336Z,16.25
2022-09-28T19:39:38.818Z,26.75
2022-09-28T19:42:06.582Z,15.48
2022-09-28T19:44:35.968Z,16.25
2022-09-28T19:47:07.727Z,15.57
2022-09-28T19:49:37.914Z,20.85
2022-09-28T19:52:14.620Z,14.30
2022-09-28T19:54:52.386Z,16.23
2022-09-28T19:57:20.055Z,18.98
2022-09-28T19:59:50.785Z,23.67
2022-09-28T20:02:20.623Z,20.40
2022-09-28T20:04:48.642Z,18.05
2022-09-28T20:07:16.433Z,13.45
2022-09-28T20:09:43.700Z,17.42
2022-09-28T20:12:11.450Z,17.42
2022-09-28T20:14:40.454Z,17.55
2022-09-28T20:17:08.527Z,15.00
2022-09-28T20:19:36.265Z,13.73
2022-09-28T20:22:04.252Z,24.63
2022-09-28T20:24:31.763Z,15.30
2022-09-28T20:26:59.376Z,14.30
2022-09-28T20:29:26.986Z,14.18
2022-09-28T20:31:54.372Z,17.90
2022-09-28T20:34:25.058Z,14.00
2022-09-28T20:36:52.473Z,21.42
2022-09-28T20:39:20.176Z,17.33
2022-09-28T20:41:49.353Z,16.38
2022-09-28T20:44:16.960Z,15.50
2022-09-28T20:46:44.587Z,19.55
2022-09-28T20:49:12.344Z,17.20
2022-09-28T20:51:39.956Z,12.85
2022-09-28T20:54:07.333Z,13.77
2022-09-28T20:56:39.570Z,16.48
2022-09-28T20:59:13.269Z,14.93
2022-09-28T21:01:41.066Z,15.93
2022-09-28T21:04:10.104Z,16.80
2022-09-28T21:06:39.543Z,19.67
2022-09-28T21:09:08.728Z,12.52
2022-09-28T21:11:36.529Z,15.45
2022-09-28T21:14:06.576Z,18.83
2022-09-28T21:16:38.329Z,14.20
2022-09-28T21:19:08.657Z,14.20
2022-09-28T21:21:46.619Z,15.55
2022-09-28T21:24:13.988Z,16.38
2022-09-28T21:26:43.140Z,20.08
2022-09-28T21:29:16.702Z,12.02
2022-09-28T21:31:46.182Z,12.70
2022-09-28T21:34:22.130Z,16.77
2022-09-28T21:36:52.879Z,10.93
2022-09-28T21:39:20.729Z,11.63
2022-09-28T21:41:51.376Z,16.52
2022-09-28T21:44:18.848Z,11.30
2022-09-28T21:46:46.302Z,12.93
2022-09-28T21:49:16.010Z,12.68
2022-09-28T21:51:43.369Z,14.30
2022-09-28T21:54:12.215Z,10.00
2022-09-28T21:56:43.846Z,13.35
2022-09-28T21:59:11.149Z,12.63
2022-09-28T22:01:53.392Z,13.73
2022-09-28T22:04:26.319Z,16.35
2022-09-28T22:06:53.714Z,17.38
2022-09-28T22:09:40.904Z,11.30
2022-09-28T22:14:53.804Z,16.77
2022-09-28T22:17:23.780Z,16.05
2022-09-28T22:19:54.443Z,11.48
2022-09-28T22:22:48.555Z,18.40
2022-09-28T22:25:22.125Z,11.40
2022-09-28T22:27:49.669Z,10.50
2022-09-28T22:30:34.311Z,9.90
2022-09-28T22:33:02.717Z,12.50
2022-09-28T22:35:32.403Z,15.32
2022-09-28T22:38:07.700Z,11.73
2022-09-28T22:43:05.040Z,12.10
2022-09-28T22:45:32.510Z,10.95
2022-09-28T22:48:05.855Z,11.65
2022-09-28T22:50:36.672Z,15.75
2022-09-28T22:53:04.563Z,13.10
2022-09-28T22:55:49.109Z,10.15
2022-09-28T22:58:18.756Z,10.07
2022-09-28T23:00:57.956Z,7.78
2022-09-28T23:03:28.398Z,10.77
2022-09-28T23:06:08.468Z,14.52
2022-09-28T23:08:56.096Z,9.60
2022-09-28T23:11:36.221Z,10.77
2022-09-28T23:14:04.300Z,13.93
2022-09-28T23:16:31.758Z,13.50
2022-09-28T23:18:59.179Z,11.45
2022-09-28T23:21:31.414Z,10.75
2022-09-28T23:24:03.475Z,10.23
2022-09-28T23:26:32.887Z,10.30
2022-09-28T23:29:01.026Z,10.80
2022-09-28T23:31:31.102Z,12.52
2022-09-28T23:34:00.647Z,8.68
2022-09-28T23:36:28.340Z,9.80
2022-09-28T23:38:55.910Z,8.35
2022-09-28T23:41:23.333Z,8.65
2022-09-28T23:43:50.731Z,8.07
2022-09-28T23:46:21.310Z,9.30
2022-09-28T23:48:49.859Z,9.23
2022-09-28T23:51:21.661Z,6.60
2022-09-28T23:53:49.056Z,5.57
2022-09-28T23:56:16.560Z,10.43
2022-09-28T23:58:43.793Z,9.88
